createdAt,value
2023-05-15T00:00:33.471Z,96408.03
2023-05-15T00:01:38.106Z,96411.75
2023-05-15T00:02:47.096Z,96405.59
2023-05-15T00:03:52.448Z,96408.53
2023-05-15T00:04:58.794Z,96410.63
2023-05-15T00:06:05.980Z,96415.97
2023-05-15T00:07:11.290Z,96408.47
2023-05-15T00:08:16.608Z,96402.59
2023-05-15T00:09:22.590Z,96407.13
2023-05-15T00:10:26.509Z,96408.44
2023-05-15T00:11:32.647Z,96411.13
2023-05-15T00:12:37.369Z,96407.88
2023-05-15T00:13:42.399Z,96403.63
2023-05-15T00:14:46.339Z,96403.06
2023-05-15T00:15:52.474Z,96395.56
2023-05-15T00:16:56.586Z,96400.34
2023-05-15T00:18:02.140Z,96409.66
2023-05-15T00:19:06.644Z,96403.22
2023-05-15T00:20:11.880Z,96398.38
2023-05-15T00:21:18.520Z,96397.84
2023-05-15T00:22:23.523Z,96394.88
2023-05-15T00:23:28.752Z,96404.41
2023-05-15T00:24:34.173Z,96399.81
2023-05-15T00:25:38.112Z,96396.06
2023-05-15T00:26:44.045Z,96391.47
2023-05-15T00:27:47.939Z,96397.03
2023-05-15T00:28:53.082Z,96394.84
2023-05-15T00:29:56.984Z,96390.03
2023-05-15T00:31:01.764Z,96387.06
2023-05-15T00:32:06.420Z,96391.84
2023-05-15T00:33:11.541Z,96385.94
2023-05-15T00:34:16.534Z,96390.19
2023-05-15T00:35:21.115Z,96396.53
2023-05-15T00:36:27.395Z,96384.78
2023-05-15T00:37:32.287Z,96389.78
2023-05-15T00:38:36.896Z,96384.72
2023-05-15T00:39:41.799Z,96386.81
2023-05-15T00:40:47.323Z,96386.28
2023-05-15T00:41:53.806Z,96383.06
2023-05-15T00:42:58.656Z,96390.25
2023-05-15T00:44:04.451Z,96382.50
2023-05-15T00:45:12.080Z,96383.56
2023-05-15T00:46:17.901Z,96377.44
2023-05-15T00:47:23.495Z,96375.81
2023-05-15T00:48:30.397Z,96382.97
2023-05-15T00:49:36.108Z,96379.78
2023-05-15T00:50:44.014Z,96374.94
2023-05-15T00:51:49.930Z,96372.53
2023-05-15T00:52:56.675Z,96382.34
2023-05-15T00:54:00.785Z,96374.63
2023-05-15T00:55:06.673Z,96376.72
2023-05-15T00:56:12.091Z,96374.31
2023-05-15T00:57:19.203Z,96371.13
2023-05-15T00:58:24.172Z,96366.03
2023-05-15T00:59:30.833Z,96367.06
2023-05-15T01:00:35.736Z,96372.66
2023-05-15T01:01:41.719Z,96372.06
2023-05-15T01:02:47.669Z,96379.50
2023-05-15T01:03:52.680Z,96370.19
2023-05-15T01:04:56.780Z,96365.09
2023-05-15T01:06:03.954Z,96376.00
2023-05-15T01:07:09.353Z,96376.22
2023-05-15T01:08:21.247Z,96368.25
2023-05-15T01:09:27.469Z,96356.47
2023-05-15T01:10:33.539Z,96368.41
2023-05-15T01:11:39.222Z,96369.72
2023-05-15T01:12:46.759Z,96369.72
2023-05-15T01:13:50.416Z,96370.75
2023-05-15T01:14:56.384Z,96360.38
2023-05-15T01:16:00.516Z,96364.91
2023-05-15T01:17:05.812Z,96361.66
2023-05-15T01:18:09.784Z,96364.31
2023-05-15T01:19:14.795Z,96362.72
2023-05-15T01:20:20.242Z,96362.72
2023-05-15T01:21:46.436Z,96361.09
2023-05-15T01:23:07.177Z,96363.44
2023-05-15T01:24:28.266Z,96363.13
2023-05-15T01:26:02.739Z,96366.84
2023-05-15T01:27:29.274Z,96358.78
2023-05-15T01:28:35.370Z,96358.47
2023-05-15T01:29:46.252Z,96360.91
2023-05-15T01:30:51.830Z,96360.91
2023-05-15T01:32:04.050Z,96361.44
2023-05-15T01:33:15.304Z,96361.44
2023-05-15T01:34:25.267Z,96359.28
2023-05-15T01:35:34.649Z,96353.16
2023-05-15T01:36:45.789Z,96347.03
2023-05-15T01:37:56.450Z,96350.75
2023-05-15T01:39:04.995Z,96356.56
2023-05-15T01:40:10.152Z,96356.78
2023-05-15T01:41:21.526Z,96357.84
2023-05-15T01:42:31.845Z,96355.97
2023-05-15T01:43:41.050Z,96349.06
2023-05-15T01:44:51.146Z,96354.94
2023-05-15T01:45:57.650Z,96345.34
2023-05-15T01:47:05.632Z,96352.84
2023-05-15T01:48:12.665Z,96353.41
2023-05-15T01:49:19.668Z,96342.53
2023-05-15T01:50:25.277Z,96346.00
2023-05-15T01:51:30.180Z,96347.34
2023-05-15T01:52:37.430Z,96343.66
2023-05-15T01:53:41.396Z,96346.31
2023-05-15T01:54:47.859Z,96344.13
2023-05-15T01:55:53.715Z,96344.94
2023-05-15T01:56:59.771Z,96347.03
2023-05-15T01:58:07.042Z,96339.31
2023-05-15T01:59:13.439Z,96348.59
2023-05-15T02:00:20.632Z,96350.44
2023-05-15T02:01:26.458Z,96338.41
2023-05-15T02:02:31.843Z,96336.25
2023-05-15T02:03:38.754Z,96335.16
2023-05-15T02:04:47.033Z,96332.97
2023-05-15T02:05:53.854Z,96335.28
2023-05-15T02:06:58.267Z,96332.84
2023-05-15T02:08:04.679Z,96341.88
2023-05-15T02:09:11.397Z,96335.19
2023-05-15T02:10:18.013Z,96332.53
2023-05-15T02:11:21.904Z,96333.84
2023-05-15T02:12:27.732Z,96333.56
2023-05-15T02:13:34.244Z,96330.13
2023-05-15T02:14:42.168Z,96335.44
2023-05-15T02:15:49.042Z,96334.38
2023-05-15T02:16:55.012Z,96335.44
2023-05-15T02:17:58.923Z,96329.88
2023-05-15T02:19:03.654Z,96331.50
2023-05-15T02:20:08.462Z,96335.19
2023-05-15T02:21:13.451Z,96335.44
2023-05-15T02:22:16.953Z,96328.50
2023-05-15T02:23:22.601Z,96329.31
2023-05-15T02:24:27.756Z,96325.03
2023-05-15T02:25:41.475Z,96327.97
2023-05-15T02:26:58.080Z,96330.84
2023-05-15T02:28:04.580Z,96325.00
2023-05-15T02:29:19.754Z,96323.38
2023-05-15T02:30:38.069Z,96324.41
2023-05-15T02:31:53.521Z,96320.38
2023-05-15T02:33:07.558Z,96323.53
2023-05-15T02:34:19.203Z,96326.41
2023-05-15T02:35:32.983Z,96325.63
2023-05-15T02:36:43.224Z,96322.97
2023-05-15T02:37:51.670Z,96325.63
2023-05-15T02:38:57.282Z,96319.84
2023-05-15T02:40:04.969Z,96323.59
2023-05-15T02:41:11.632Z,96318.06
2023-05-15T02:42:17.181Z,96322.34
2023-05-15T02:43:21.222Z,96316.75
2023-05-15T02:44:30.842Z,96319.19
2023-05-15T02:45:36.425Z,96315.47
2023-05-15T02:46:42.460Z,96310.94
2023-05-15T02:47:48.675Z,96315.78
2023-05-15T02:48:55.075Z,96317.41
2023-05-15T02:49:59.029Z,96319.00
2023-05-15T02:51:03.973Z,96317.41
2023-05-15T02:52:07.566Z,96317.41
2023-05-15T02:53:15.266Z,96312.91
2023-05-15T02:54:19.450Z,96314.50
2023-05-15T02:55:24.827Z,96319.00
2023-05-15T02:56:28.778Z,96316.91
2023-05-15T02:57:33.812Z,96313.22
2023-05-15T02:58:38.981Z,96311.38
2023-05-15T02:59:45.423Z,96310.28
2023-05-15T03:00:56.137Z,96314.81
2023-05-15T03:02:10.475Z,96308.72
2023-05-15T03:03:14.750Z,96314.03
2023-05-15T03:04:20.451Z,96313.75
2023-05-15T03:05:23.963Z,96308.56
2023-05-15T03:06:29.256Z,96312.31
2023-05-15T03:07:33.783Z,96301.78
2023-05-15T03:08:38.991Z,96304.50
2023-05-15T03:09:42.787Z,96303.50
2023-05-15T03:10:49.421Z,96306.25
2023-05-15T03:11:53.497Z,96305.75
2023-05-15T03:13:01.164Z,96306.88
2023-05-15T03:14:04.799Z,96304.28
2023-05-15T03:15:11.661Z,96311.75
2023-05-15T03:16:15.546Z,96306.19
2023-05-15T03:17:20.356Z,96303.28
2023-05-15T03:18:24.274Z,96310.22
2023-05-15T03:19:29.544Z,96312.38
2023-05-15T03:20:32.942Z,96303.59
2023-05-15T03:21:38.287Z,96310.28
2023-05-15T03:22:42.468Z,96305.53
2023-05-15T03:23:47.442Z,96310.34
2023-05-15T03:24:51.231Z,96305.34
2023-05-15T03:25:55.734Z,96312.00
2023-05-15T03:27:00.031Z,96302.47
2023-05-15T03:28:04.909Z,96306.75
2023-05-15T03:29:08.571Z,96303.59
2023-05-15T03:30:16.154Z,96301.47
2023-05-15T03:31:19.727Z,96302.03
2023-05-15T03:32:25.109Z,96305.25
2023-05-15T03:33:29.844Z,96299.94
2023-05-15T03:34:35.456Z,96292.50
2023-05-15T03:35:38.994Z,96299.44
2023-05-15T03:36:43.965Z,96297.81
2023-05-15T03:37:48.615Z,96298.63
2023-05-15T03:38:54.203Z,96294.63
2023-05-15T03:39:59.348Z,96294.84
2023-05-15T03:41:05.552Z,96301.72
2023-05-15T03:42:10.441Z,96298.78
2023-05-15T03:43:15.053Z,96299.00
2023-05-15T03:44:18.688Z,96301.94
2023-05-15T03:45:26.234Z,96290.19
2023-05-15T03:46:30.604Z,96288.56
2023-05-15T03:47:37.813Z,96283.75
2023-05-15T03:48:41.879Z,96277.88
2023-05-15T03:49:48.210Z,96262.16
2023-05-15T03:50:52.831Z,96268.78
2023-05-15T03:51:59.279Z,96267.41
2023-05-15T03:53:02.606Z,96265.53
2023-05-15T03:54:09.051Z,96271.34
2023-05-15T03:55:13.394Z,96266.53
2023-05-15T03:56:19.250Z,96272.63
2023-05-15T03:57:22.926Z,96267.22
2023-05-15T03:58:27.963Z,96267.72
2023-05-15T03:59:32.483Z,96262.09
2023-05-15T04:00:38.783Z,96263.16
2023-05-15T04:01:55.746Z,96264.19
2023-05-15T04:03:08.690Z,96260.97
2023-05-15T04:04:13.086Z,96266.28
2023-05-15T04:05:20.119Z,96270.31
2023-05-15T04:06:23.860Z,96270.06
2023-05-15T04:07:28.714Z,96270.63
2023-05-15T04:08:33.724Z,96273.84
2023-05-15T04:09:39.407Z,96272.53
2023-05-15T04:10:43.562Z,96268.34
2023-05-15T04:11:48.217Z,96269.16
2023-05-15T04:12:53.013Z,96264.38
2023-05-15T04:13:57.613Z,96264.94
2023-05-15T04:15:15.785Z,96264.44
2023-05-15T04:16:22.586Z,96262.84
2023-05-15T04:17:26.094Z,96261.78
2023-05-15T04:18:31.699Z,96261.53
2023-05-15T04:19:35.237Z,96263.94
2023-05-15T04:20:40.902Z,96256.53
2023-05-15T04:21:43.716Z,96264.25
2023-05-15T04:22:48.964Z,96267.16
2023-05-15T04:23:52.622Z,96263.94
2023-05-15T04:24:57.401Z,96260.72
2023-05-15T04:26:01.891Z,96249.78
2023-05-15T04:27:07.652Z,96249.00
2023-05-15T04:28:13.172Z,96251.06
2023-05-15T04:29:16.949Z,96246.81
2023-05-15T04:30:21.701Z,96249.50
2023-05-15T04:31:28.176Z,96248.19
2023-05-15T04:32:34.486Z,96246.88
2023-05-15T04:33:39.730Z,96258.63
2023-05-15T04:34:46.420Z,96249.88
2023-05-15T04:35:52.630Z,96248.13
2023-05-15T04:36:57.195Z,96249.28
2023-05-15T04:38:01.035Z,96252.53
2023-05-15T04:39:07.748Z,96248.88
2023-05-15T04:40:13.001Z,96250.53
2023-05-15T04:41:18.793Z,96248.16
2023-05-15T04:42:24.060Z,96254.59
2023-05-15T04:43:28.737Z,96260.78
2023-05-15T04:44:32.862Z,96257.66
2023-05-15T04:45:37.928Z,96256.66
2023-05-15T04:46:44.991Z,96255.66
2023-05-15T04:47:50.396Z,96254.91
2023-05-15T04:48:53.912Z,96254.16
2023-05-15T04:50:01.166Z,96256.34
2023-05-15T04:51:04.927Z,96250.31
2023-05-15T04:52:10.603Z,96253.28
2023-05-15T04:53:17.370Z,96247.75
2023-05-15T04:54:21.938Z,96254.47
2023-05-15T04:55:27.282Z,96255.06
2023-05-15T04:56:31.141Z,96248.19
2023-05-15T04:57:36.663Z,96248.25
2023-05-15T04:58:41.478Z,96246.69
2023-05-15T04:59:47.309Z,96254.19
2023-05-15T05:00:50.652Z,96245.94
2023-05-15T05:01:56.345Z,96251.09
2023-05-15T05:03:01.562Z,96245.81
2023-05-15T05:04:07.242Z,96242.09
2023-05-15T05:05:11.400Z,96237.91
2023-05-15T05:06:16.078Z,96244.91
2023-05-15T05:07:20.021Z,96234.78
2023-05-15T05:08:24.863Z,96240.94
2023-05-15T05:09:29.233Z,96247.09
2023-05-15T05:10:34.821Z,96238.22
2023-05-15T05:11:39.760Z,96241.03
2023-05-15T05:12:44.658Z,96241.16
2023-05-15T05:13:49.159Z,96242.25
2023-05-15T05:14:54.059Z,96238.25
2023-05-15T05:15:58.029Z,96242.22
2023-05-15T05:17:05.094Z,96245.13
2023-05-15T05:18:09.447Z,96238.94
2023-05-15T05:19:15.116Z,96249.78
2023-05-15T05:20:20.087Z,96245.59
2023-05-15T05:21:24.771Z,96252.22
2023-05-15T05:22:29.844Z,96256.63
2023-05-15T05:23:34.177Z,96252.31
2023-05-15T05:24:38.985Z,96258.78
2023-05-15T05:25:42.642Z,96266.56
2023-05-15T05:26:47.053Z,96259.38
2023-05-15T05:27:50.671Z,96267.53
2023-05-15T05:28:56.713Z,96259.56
2023-05-15T05:30:01.308Z,96270.91
2023-05-15T05:31:05.939Z,96265.66
2023-05-15T05:32:11.272Z,96265.56
2023-05-15T05:33:16.112Z,96271.50
2023-05-15T05:34:22.019Z,96263.47
2023-05-15T05:35:28.795Z,96263.38
2023-05-15T05:36:32.684Z,96257.31
2023-05-15T05:37:38.681Z,96254.66
2023-05-15T05:38:44.115Z,96249.44
2023-05-15T05:39:48.991Z,96248.06
2023-05-15T05:40:53.090Z,96239.34
2023-05-15T05:41:59.195Z,96240.31
2023-05-15T05:43:02.959Z,96239.00
2023-05-15T05:44:07.446Z,96233.91
2023-05-15T05:45:12.955Z,96229.91
2023-05-15T05:46:18.206Z,96237.03
2023-05-15T05:47:22.976Z,96232.22
2023-05-15T05:48:28.897Z,96234.44
2023-05-15T05:49:33.201Z,96234.75
2023-05-15T05:50:38.780Z,96236.97
2023-05-15T05:51:43.162Z,96238.63
2023-05-15T05:52:48.010Z,96247.75
2023-05-15T05:53:52.105Z,96246.34
2023-05-15T05:54:56.601Z,96238.38
2023-05-15T05:55:59.648Z,96243.78
2023-05-15T05:57:04.738Z,96242.50
2023-05-15T05:58:14.802Z,96245.22
2023-05-15T05:59:29.720Z,96254.28
2023-05-15T06:00:33.472Z,96249.19
2023-05-15T06:01:37.796Z,96249.78
2023-05-15T06:02:44.298Z,96250.78
2023-05-15T06:03:49.205Z,96249.13
2023-05-15T06:04:55.372Z,96249.97
2023-05-15T06:05:58.975Z,96251.94
2023-05-15T06:07:03.623Z,96250.78
2023-05-15T06:08:09.518Z,96242.91
2023-05-15T06:09:13.662Z,96242.78
2023-05-15T06:10:19.217Z,96237.03
2023-05-15T06:11:25.532Z,96238.50
2023-05-15T06:12:29.296Z,96233.94
2023-05-15T06:13:34.938Z,96236.22
2023-05-15T06:14:38.802Z,96231.59
2023-05-15T06:15:43.901Z,96236.50
2023-05-15T06:16:49.097Z,96227.19
2023-05-15T06:17:54.406Z,96227.16
2023-05-15T06:18:59.078Z,96218.63
2023-05-15T06:20:03.846Z,96219.22
2023-05-15T06:21:08.553Z,96223.72
2023-05-15T06:22:11.740Z,96227.38
2023-05-15T06:23:16.434Z,96226.78
2023-05-15T06:24:20.303Z,96233.50
2023-05-15T06:25:23.445Z,96234.78
2023-05-15T06:26:27.668Z,96232.28
2023-05-15T06:27:30.892Z,96234.03
2023-05-15T06:28:34.802Z,96237.75
2023-05-15T06:29:37.863Z,96240.09
2023-05-15T06:30:42.787Z,96230.63
2023-05-15T06:31:46.843Z,96239.56
2023-05-15T06:32:51.029Z,96241.94
2023-05-15T06:33:55.860Z,96238.06
2023-05-15T06:35:00.720Z,96245.47
2023-05-15T06:36:04.997Z,96251.63
2023-05-15T06:37:09.193Z,96247.06
2023-05-15T06:38:13.357Z,96243.75
2023-05-15T06:39:17.422Z,96246.38
2023-05-15T06:40:23.702Z,96244.78
2023-05-15T06:41:27.003Z,96238.44
2023-05-15T06:42:31.565Z,96233.66
2023-05-15T06:43:36.504Z,96230.50
2023-05-15T06:44:42.390Z,96231.16
2023-05-15T06:45:47.247Z,96227.13
2023-05-15T06:46:50.989Z,96232.84
2023-05-15T06:47:55.793Z,96225.50
2023-05-15T06:49:01.886Z,96224.41
2023-05-15T06:50:06.025Z,96223.34
2023-05-15T06:51:11.124Z,96217.59
2023-05-15T06:52:15.443Z,96213.84
2023-05-15T06:53:21.241Z,96221.81
2023-05-15T06:54:25.796Z,96207.84
2023-05-15T06:55:29.347Z,96207.59
2023-05-15T06:56:34.962Z,96203.84
2023-05-15T06:57:38.625Z,96199.63
2023-05-15T06:58:43.362Z,96205.25
2023-05-15T06:59:49.066Z,96199.06
2023-05-15T07:00:54.244Z,96195.19
2023-05-15T07:02:00.575Z,96195.31
2023-05-15T07:03:03.839Z,96191.81
2023-05-15T07:04:09.631Z,96193.41
2023-05-15T07:05:13.348Z,96193.03
2023-05-15T07:06:19.328Z,96194.22
2023-05-15T07:07:23.081Z,96191.88
2023-05-15T07:08:29.008Z,96200.94
2023-05-15T07:09:32.800Z,96203.34
2023-05-15T07:10:37.333Z,96190.00
2023-05-15T07:11:44.242Z,96196.34
2023-05-15T07:12:49.542Z,96190.03
2023-05-15T07:13:53.473Z,96189.63
2023-05-15T07:14:58.143Z,96200.31
2023-05-15T07:16:01.715Z,96199.53
2023-05-15T07:17:07.264Z,96205.03
2023-05-15T07:18:11.331Z,96214.06
2023-05-15T07:19:21.893Z,96208.19
2023-05-15T07:20:32.454Z,96216.81
2023-05-15T07:21:39.806Z,96216.00
2023-05-15T07:22:55.690Z,96210.50
2023-05-15T07:24:02.400Z,96219.91
2023-05-15T07:25:07.989Z,96220.69
2023-05-15T07:26:16.885Z,96230.13
2023-05-15T07:27:24.544Z,96234.81
2023-05-15T07:28:28.153Z,96235.97
2023-05-15T07:29:32.591Z,96238.78
2023-05-15T07:30:35.844Z,96239.97
2023-05-15T07:31:40.742Z,96231.66
2023-05-15T07:32:45.219Z,96224.53
2023-05-15T07:33:48.559Z,96234.72
2023-05-15T07:34:54.379Z,96220.50
2023-05-15T07:35:58.084Z,96222.34
2023-05-15T07:37:02.680Z,96221.56
2023-05-15T07:38:07.278Z,96217.22
2023-05-15T07:39:13.581Z,96213.28
2023-05-15T07:40:17.295Z,96214.78
2023-05-15T07:41:20.379Z,96209.59
2023-05-15T07:42:24.543Z,96203.97
2023-05-15T07:43:28.221Z,96208.97
2023-05-15T07:44:31.211Z,96211.69
2023-05-15T07:45:34.955Z,96205.84
2023-05-15T07:46:39.559Z,96208.66
2023-05-15T07:47:46.640Z,96208.22
2023-05-15T07:48:49.460Z,96211.25
2023-05-15T07:49:55.096Z,96209.53
2023-05-15T07:50:57.775Z,96212.50
2023-05-15T07:52:03.479Z,96212.75
2023-05-15T07:53:07.010Z,96218.47
2023-05-15T07:54:11.175Z,96227.81
2023-05-15T07:55:16.059Z,96224.59
2023-05-15T07:56:20.644Z,96227.81
2023-05-15T07:57:25.637Z,96223.59
2023-05-15T07:58:29.052Z,96225.47
2023-05-15T07:59:33.162Z,96216.78
2023-05-15T08:00:36.800Z,96214.47
2023-05-15T08:01:40.681Z,96218.41
2023-05-15T08:02:46.590Z,96215.63
2023-05-15T08:03:49.896Z,96224.97
2023-05-15T08:04:56.228Z,96214.22
2023-05-15T08:06:00.721Z,96210.09
2023-05-15T08:07:04.965Z,96207.13
2023-05-15T08:08:08.710Z,96207.25
2023-05-15T08:09:13.199Z,96194.81
2023-05-15T08:10:17.573Z,96196.72
2023-05-15T08:11:23.138Z,96199.19
2023-05-15T08:12:28.516Z,96195.38
2023-05-15T08:13:31.846Z,96194.63
2023-05-15T08:14:35.916Z,96191.50
2023-05-15T08:15:39.858Z,96192.31
2023-05-15T08:16:42.747Z,96188.00
2023-05-15T08:17:46.729Z,96184.69
2023-05-15T08:18:53.908Z,96182.22
2023-05-15T08:19:59.041Z,96179.59
2023-05-15T08:21:04.669Z,96175.34
2023-05-15T08:22:07.968Z,96164.38
2023-05-15T08:23:14.984Z,96174.25
2023-05-15T08:24:19.296Z,96168.38
2023-05-15T08:25:23.241Z,96166.41
2023-05-15T08:26:27.746Z,96167.97
2023-05-15T08:27:32.893Z,96169.53
2023-05-15T08:28:36.886Z,96164.81
2023-05-15T08:29:40.446Z,96167.22
2023-05-15T08:30:44.032Z,96156.19
2023-05-15T08:31:46.914Z,96152.69
2023-05-15T08:32:51.157Z,96146.72
2023-05-15T08:33:54.144Z,96144.28
2023-05-15T08:35:00.526Z,96147.28
2023-05-15T08:36:03.339Z,96149.22
2023-05-15T08:37:07.803Z,96146.78
2023-05-15T08:38:12.088Z,96145.75
2023-05-15T08:39:15.463Z,96134.84
2023-05-15T08:40:25.598Z,96127.41
2023-05-15T08:41:49.477Z,96128.41
2023-05-15T08:42:57.134Z,96126.34
2023-05-15T08:44:04.243Z,96125.06
2023-05-15T08:45:09.289Z,96116.75
2023-05-15T08:46:14.368Z,96118.66
2023-05-15T08:47:20.426Z,96115.56
2023-05-15T08:48:26.685Z,96117.81
2023-05-15T08:49:38.869Z,96112.31
2023-05-15T08:50:46.228Z,96122.44
2023-05-15T08:51:49.394Z,96132.34
2023-05-15T08:52:58.362Z,96124.47
2023-05-15T08:54:02.539Z,96127.75
2023-05-15T08:55:06.924Z,96119.25
2023-05-15T08:56:10.800Z,96123.16
2023-05-15T08:57:15.580Z,96128.84
2023-05-15T08:58:21.571Z,96129.75
2023-05-15T08:59:25.478Z,96129.09
2023-05-15T09:00:30.152Z,96132.69
2023-05-15T09:01:35.452Z,96126.22
2023-05-15T09:02:42.951Z,96126.00
2023-05-15T09:03:47.263Z,96138.66
2023-05-15T09:04:50.084Z,96136.34
2023-05-15T09:05:57.484Z,96135.13
2023-05-15T09:07:02.626Z,96136.66
2023-05-15T09:08:08.327Z,96137.69
2023-05-15T09:09:14.711Z,96146.50
2023-05-15T09:10:18.960Z,96133.84
2023-05-15T09:11:24.421Z,96134.13
2023-05-15T09:12:28.880Z,96135.28
2023-05-15T09:13:31.996Z,96134.56
2023-05-15T09:14:36.390Z,96129.09
2023-05-15T09:15:39.981Z,96132.97
2023-05-15T09:16:44.963Z,96139.59
2023-05-15T09:17:49.116Z,96135.81
2023-05-15T09:18:54.014Z,96146.13
2023-05-15T09:19:58.429Z,96149.69
2023-05-15T09:21:28.308Z,96143.09
2023-05-15T09:22:36.097Z,96137.78
2023-05-15T09:23:40.389Z,96135.41
2023-05-15T09:24:43.494Z,96132.88
2023-05-15T09:25:53.099Z,96134.19
2023-05-15T09:27:06.339Z,96128.25
2023-05-15T09:28:10.999Z,96124.19
2023-05-15T09:29:19.191Z,96122.09
2023-05-15T09:30:23.268Z,96127.44
2023-05-15T09:31:29.383Z,96118.34
2023-05-15T09:32:32.907Z,96124.59
2023-05-15T09:33:38.619Z,96123.41
2023-05-15T09:34:43.958Z,96130.41
2023-05-15T09:35:47.165Z,96136.25
2023-05-15T09:36:53.159Z,96132.66
2023-05-15T09:38:01.210Z,96140.81
2023-05-15T09:39:05.487Z,96130.41
2023-05-15T09:40:11.156Z,96132.88
2023-05-15T09:41:16.252Z,96125.13
2023-05-15T09:42:19.743Z,96127.78
2023-05-15T09:43:24.803Z,96127.28
2023-05-15T09:44:28.876Z,96127.16
2023-05-15T09:45:32.097Z,96122.44
2023-05-15T09:46:36.817Z,96135.53
2023-05-15T09:47:40.445Z,96135.28
2023-05-15T09:48:44.859Z,96127.81
2023-05-15T09:49:49.184Z,96126.75
2023-05-15T09:50:53.674Z,96122.81
2023-05-15T09:52:02.389Z,96118.84
2023-05-15T09:53:07.234Z,96114.31
2023-05-15T09:54:17.344Z,96104.78
2023-05-15T09:55:21.880Z,96092.06
2023-05-15T09:56:27.441Z,96096.81
2023-05-15T09:57:29.950Z,96086.03
2023-05-15T09:58:36.839Z,96083.47
2023-05-15T09:59:46.648Z,96080.75
2023-05-15T10:00:50.530Z,96084.13
2023-05-15T10:01:54.997Z,96080.25
2023-05-15T10:02:59.759Z,96081.84
2023-05-15T10:04:07.783Z,96077.09
2023-05-15T10:05:14.835Z,96068.56
2023-05-15T10:06:21.406Z,96070.84
2023-05-15T10:07:34.295Z,96071.22
2023-05-15T10:08:42.219Z,96067.81
2023-05-15T10:09:46.357Z,96059.72
2023-05-15T10:10:51.238Z,96061.75
2023-05-15T10:11:55.289Z,96066.84
2023-05-15T10:13:05.121Z,96069.22
2023-05-15T10:14:09.919Z,96073.69
2023-05-15T10:15:14.092Z,96070.31
2023-05-15T10:16:22.812Z,96080.75
2023-05-15T10:17:28.255Z,96070.56
2023-05-15T10:18:35.127Z,96077.41
2023-05-15T10:19:47.172Z,96073.78
2023-05-15T10:21:04.485Z,96070.06
2023-05-15T10:22:10.225Z,96071.06
2023-05-15T10:23:18.789Z,96068.41
2023-05-15T10:24:24.510Z,96064.56
2023-05-15T10:25:34.971Z,96054.84
2023-05-15T10:26:40.836Z,96059.88
2023-05-15T10:27:44.668Z,96057.03
2023-05-15T10:28:50.940Z,96062.47
2023-05-15T10:29:57.345Z,96057.38
2023-05-15T10:31:02.635Z,96047.56
2023-05-15T10:32:06.218Z,96041.31
2023-05-15T10:33:11.117Z,96044.94
2023-05-15T10:34:14.535Z,96041.19
2023-05-15T10:35:19.333Z,96048.31
2023-05-15T10:36:23.302Z,96048.84
2023-05-15T10:37:29.794Z,96047.03
2023-05-15T10:38:38.161Z,96039.56
2023-05-15T10:39:44.443Z,96048.50
2023-05-15T10:40:49.440Z,96054.59
2023-05-15T10:41:55.155Z,96041.25
2023-05-15T10:43:02.416Z,96045.78
2023-05-15T10:44:06.532Z,96046.44
2023-05-15T10:45:12.218Z,96044.72
2023-05-15T10:46:18.306Z,96043.81
2023-05-15T10:47:22.481Z,96051.25
2023-05-15T10:48:28.653Z,96047.72
2023-05-15T10:49:34.681Z,96051.03
2023-05-15T10:50:40.174Z,96043.03
2023-05-15T10:51:45.165Z,96049.03
2023-05-15T10:52:52.842Z,96052.72
2023-05-15T10:53:59.618Z,96050.22
2023-05-15T10:55:07.075Z,96044.53
2023-05-15T10:56:16.876Z,96062.28
2023-05-15T10:57:23.098Z,96054.06
2023-05-15T10:58:26.152Z,96049.97
2023-05-15T10:59:33.477Z,96052.97
2023-05-15T11:00:44.467Z,96046.44
2023-05-15T11:01:49.416Z,96043.28
2023-05-15T11:02:56.802Z,96049.66
2023-05-15T11:04:13.229Z,96043.78
2023-05-15T11:05:17.536Z,96052.38
2023-05-15T11:06:32.482Z,96047.41
2023-05-15T11:07:37.698Z,96051.88
2023-05-15T11:08:46.301Z,96041.84
2023-05-15T11:09:51.925Z,96046.59
2023-05-15T11:10:55.469Z,96040.66
2023-05-15T11:12:01.623Z,96042.19
2023-05-15T11:13:05.856Z,96033.97
2023-05-15T11:14:16.010Z,96045.69
2023-05-15T11:15:21.363Z,96042.09
2023-05-15T11:17:17.919Z,96040.31
2023-05-15T11:18:21.377Z,96048.16
2023-05-15T11:19:27.314Z,96051.69
2023-05-15T11:20:41.584Z,96048.41
2023-05-15T11:21:48.076Z,96047.53
2023-05-15T11:23:00.193Z,96054.16
2023-05-15T11:24:07.339Z,96041.47
2023-05-15T11:25:15.022Z,96045.94
2023-05-15T11:26:33.790Z,96043.88
2023-05-15T11:27:42.070Z,96039.44
2023-05-15T11:28:46.025Z,96037.22
2023-05-15T11:30:11.183Z,96022.53
2023-05-15T11:31:16.634Z,96026.50
2023-05-15T11:32:33.216Z,96025.84
2023-05-15T11:33:41.035Z,96020.69
2023-05-15T11:34:44.313Z,96032.66
2023-05-15T11:35:49.330Z,96031.53
2023-05-15T11:36:52.988Z,96039.06
2023-05-15T11:37:58.597Z,96044.34
2023-05-15T11:39:03.532Z,96041.31
2023-05-15T11:40:07.777Z,96027.56
2023-05-15T11:41:27.775Z,96022.16
2023-05-15T11:42:32.345Z,96023.59
2023-05-15T11:43:37.958Z,96031.13
2023-05-15T11:44:41.027Z,96034.81
2023-05-15T11:45:47.682Z,96030.72
2023-05-15T11:46:51.566Z,96030.41
2023-05-15T11:47:55.649Z,96031.72
2023-05-15T11:49:00.361Z,96025.81
2023-05-15T11:50:06.721Z,96020.91
2023-05-15T11:51:18.454Z,96031.72
2023-05-15T11:52:21.657Z,96023.28
2023-05-15T11:53:27.111Z,96022.63
2023-05-15T11:54:31.834Z,96020.25
2023-05-15T11:55:36.021Z,96020.25
2023-05-15T11:56:46.428Z,96016.41
2023-05-15T11:57:49.660Z,96017.53
2023-05-15T11:58:55.955Z,96024.88
2023-05-15T12:00:00.182Z,96025.66
2023-05-15T12:01:12.854Z,96018.19
2023-05-15T12:02:17.801Z,96019.63
2023-05-15T12:03:27.403Z,96021.84
2023-05-15T12:04:34.836Z,96022.97
2023-05-15T12:05:53.648Z,96023.63
2023-05-15T12:07:03.773Z,96023.34
2023-05-15T12:08:10.601Z,96020.00
2023-05-15T12:09:19.627Z,96020.50
2023-05-15T12:10:23.339Z,96021.34
2023-05-15T12:11:27.410Z,96009.25
2023-05-15T12:12:33.557Z,96008.63
2023-05-15T12:13:37.459Z,96000.34
2023-05-15T12:14:41.533Z,96015.00
2023-05-15T12:15:48.400Z,96004.84
2023-05-15T12:16:53.892Z,96005.34
2023-05-15T12:17:57.486Z,96002.00
2023-05-15T12:19:01.738Z,95997.06
2023-05-15T12:20:06.176Z,95997.88
2023-05-15T12:21:12.267Z,95990.88
2023-05-15T12:22:16.125Z,95996.28
2023-05-15T12:23:22.922Z,95994.06
2023-05-15T12:24:28.156Z,95983.53
2023-05-15T12:25:33.447Z,95983.84
2023-05-15T12:26:38.679Z,95993.41
2023-05-15T12:27:44.593Z,95988.00
2023-05-15T12:28:49.582Z,95989.25
2023-05-15T12:29:52.573Z,95975.13
2023-05-15T12:30:56.610Z,95968.59
2023-05-15T12:32:00.771Z,95987.84
2023-05-15T12:33:07.144Z,95976.03
2023-05-15T12:34:11.122Z,95979.75
2023-05-15T12:35:14.977Z,95970.81
2023-05-15T12:36:22.651Z,95970.47
2023-05-15T12:37:26.524Z,95985.16
2023-05-15T12:38:30.907Z,95974.31
2023-05-15T12:39:35.678Z,95973.53
2023-05-15T12:40:39.623Z,95978.13
2023-05-15T12:41:44.007Z,95974.97
2023-05-15T12:42:53.840Z,95964.31
2023-05-15T12:43:58.075Z,95965.44
2023-05-15T12:45:02.135Z,95965.59
2023-05-15T12:46:06.416Z,95961.16
2023-05-15T12:47:09.983Z,95968.16
2023-05-15T12:48:16.644Z,95967.19
2023-05-15T12:49:24.469Z,95972.78
2023-05-15T12:50:30.873Z,95975.34
2023-05-15T12:51:34.995Z,95967.53
2023-05-15T12:52:38.044Z,95962.75
2023-05-15T12:53:44.349Z,95959.13
2023-05-15T12:54:47.418Z,95962.28
2023-05-15T12:55:53.431Z,95963.56